This is the latest recevied weather packets stored in our database for station/object HI3FAM-13. If no packets are shown the sender has not sent any weather packets the latest 10 day(s).
| Time | Temp. | Humidity | Pressure | Rain* | Wind** | Luminosity | Snow |
|---|---|---|---|---|---|---|---|
| 1787596469 | 35.56° C | 61% | 1013 hPa | 0 mm | - | - | - |
| 1787595868 | 35.56° C | 61% | 1014 hPa | 0 mm | - | - | - |
| 1787595266 | 35.56° C | 61% | 1014 hPa | 0 mm | - | - | - |
| 1787594664 | 35.56° C | 61% | 1014 hPa | 0 mm | - | - | - |
| 1787594063 | 35.56° C | 61% | 1014 hPa | 0 mm | - | - | - |
| 1787593461 | 32.78° C | 58% | 1014 hPa | 0 mm | - | - | - |
| 1787592858 | 33.33° C | 60% | 1015 hPa | 0 mm | - | - | - |
| 1787592256 | 33.33° C | 60% | 1015 hPa | 0 mm | - | - | - |
| 1787591655 | 33.89° C | 62% | 1015 hPa | 0 mm | - | - | - |
| 1787591054 | 34.44° C | 64% | 1015 hPa | 0 mm | - | - | - |
| 1787572634 | 22.78° C | 93% | 1017 hPa | 0 mm | - | - | - |
| 1787572032 | 22.78° C | 93% | 1017 hPa | 0 mm | - | - | - |
| 1787489022 | 27.78° C | 96% | 1017 hPa | 0.25 mm | - | - | - |
| 1787488420 | 22.78° C | 98% | 1017 hPa | 0.25 mm | - | - | - |
| 1787487819 | 22.78° C | 98% | 1016 hPa | 0 mm | - | - | - |
| 1787487217 | 22.78° C | 99% | 1016 hPa | 0.25 mm | - | - | - |
| 1787486616 | 22.78° C | 99% | 1016 hPa | 0 mm | - | - | - |
| 1787486015 | 22.78° C | 99% | 1016 hPa | 0 mm | - | - | - |
| 1787485413 | 22.78° C | 99% | 1016 hPa | 0 mm | - | - | - |
| 1787484812 | 21.67° C | 97% | 1016 hPa | 0 mm | - | - | - |
| 1787484210 | 21.67° C | 97% | 1016 hPa | 0 mm | - | - | - |
| 1787483609 | 21.67° C | 97% | 1016 hPa | 0.25 mm | - | - | - |
| 1787483007 | 21.67° C | 97% | 1016 hPa | 0 mm | - | - | - |
| 1787482405 | 21.67° C | 97% | 1016 hPa | 0 mm | - | - | - |
| 1787481804 | 21.67° C | 97% | 1016 hPa | 0 mm | - | - | - |
* Rain latest hour (hover to see other rain measurements)
** Current wind speed in m/s (hover to see current wind gust speed)